• Join FlightAware (Why Join?)
  • Login
  • US Flag 
03:01PM EDT


 

Airport Tracker/Info


-or-


 

Live Flight TrackerFlight Track Log ✈ DAL454 ✈ 25-Mar-2014 ✈ KJFK - TIST / STT

Flight Track Log - Related Links

Times and Time Zones

All times are in EDT time to prevent confusion due to time zone crossing. See the DAL454 flight status page for this flight to view local times or setup timezone preferences in your user account.

Time Position Orientation Groundspeed Altitude Reporting Facility
EDT Latitude Longitude Course Direction KTS MPH feet Rate Location/Type
08:52AM 40.6667 -73.7500 128° Southeast 188 216 1,800  Level New York TRACON
08:53AM 40.6667 -73.6667 90° East 251 289 3,900 2,880 Climbing New York TRACON
08:54AM 40.4496 -73.4437 128° Southeast  Level FlightAware Approximate
08:55AM 40.3762 -73.3226 131° Southeast  Level FlightAware Approximate
08:55AM 40.5242 -73.5750 154° Southeast 280 322 10,900  Level New York Center
08:56AM 40.2998 -73.2050 128° Southeast  Level FlightAware Approximate
08:56AM 40.4581 -73.4658 128° Southeast 328 377 13,500  Level New York Center
08:57AM 40.2271 -73.0835 128° Southeast  Level FlightAware Approximate
08:57AM 40.3997 -73.3711 129° Southeast 365 420 14,000  Level New York Center
08:58AM 40.3186 -73.2644 135° Southeast 370 426 15,900 1,740 Climbing New York Center
08:59AM 40.2517 -73.1833 137° Southeast 378 435 17,500 1,860 Climbing New York Center
09:00AM 40.1703 -73.0853 137° Southeast 385 443 19,700 2,100 Climbing New York Center
09:01AM 40.0889 -72.9875 137° Southeast 390 449 21,800 1,620 Climbing New York Center
09:02AM 40.0053 -72.8900 138° Southeast 400 460 23,000 900 Climbing New York Center
09:03AM 39.9194 -72.7844 137° Southeast 412 474 23,600 1,260 Climbing New York Center
09:04AM 39.8339 -72.6794 137° Southeast 418 481 25,600 1,860 Climbing New York Center
09:05AM 39.7439 -72.5717 137° Southeast 425 489 27,400 1,740 Climbing New York Center
09:06AM 39.6517 -72.4642 138° Southeast 438 504 29,100 1,500 Climbing New York Center
09:07AM 39.5553 -72.3539 139° Southeast 453 521 30,400 1,020 Climbing New York Center
09:08AM 39.4567 -72.2389 138° Southeast 464 534 31,200 1,140 Climbing New York Center
09:09AM 39.3581 -72.1267 139° Southeast 469 540 32,700 1,260 Climbing New York Center
09:10AM 39.2594 -72.0039 136° Southeast 481 554 33,800 1,200 Climbing New York Center
09:11AM 39.1564 -71.8844 138° Southeast 486 559 35,100 1,260 Climbing New York Center
09:12AM 39.0531 -71.7650 138° Southeast 491 565 36,400 900 Climbing New York Center
09:13AM 38.9478 -71.6489 139° Southeast 496 571 37,000 300 Climbing New York Center
09:14AM 38.8422 -71.5328 139° Southeast 501 577 37,000  Level New York Center
09:15AM 38.7408 -71.4064 136° Southeast 507 583 37,000  Level New York Center
09:16AM 38.6331 -71.2833 138° Southeast 507 583 37,000  Level New York Center
09:17AM 38.5253 -71.1631 139° Southeast 512 589 37,000  Level New York Center
09:18AM 38.4150 -71.0456 140° Southeast 512 589 37,000  Level New York Center
09:19AM 38.3089 -70.9208 137° Southeast 512 589 37,000  Level New York Center
09:20AM 38.2028 -70.8042 139° Southeast 512 589 37,000  Level New York Center
09:21AM 38.0922 -70.6881 140° Southeast 512 589 37,000  Level New York Center
09:23AM 37.9641 -70.5549 154° Southeast  Level FlightAware Approximate
09:24AM 38.0000 -70.5833 153° Southeast 490 564 37,000  Level New York Oceanic (ODAPS)
09:39AM 36.1667 -69.4500 143° Southeast 507 583 37,000  Level New York Oceanic (ODAPS)
09:55AM 34.3139 -67.7289 169° South 446 513 37,000  Level New York Center
09:56AM 34.1333 -67.5833 169° South 507 583 37,000  Level FlightAware Transoceanic
09:56AM 34.2178 -67.6394 142° Southeast 461 531 37,000  Level New York Center
09:57AM 34.0111 -67.5552 169° South 507 583 37,000  Level FlightAware Transoceanic
09:57AM 34.0931 -67.5717 156° South 448 516 37,000  Level New York Center
09:58AM 33.8889 -67.5272 169° South 507 583 37,000  Level FlightAware Transoceanic
09:58AM 33.9983 -67.5428 166° South 410 472 37,000  Level New York Center
09:59AM 33.7667 -67.4993 169° South 507 583 37,000  Level FlightAware Transoceanic
09:59AM 33.8767 -67.5200 171° South 405 466 37,000  Level New York Center
10:00AM 33.7656 -67.4967 170° South 413 475 37,000 300 Level New York Center
10:01AM 33.6669 -67.4731 169° South 401 461 37,700 600 Climbing New York Center
10:02AM 33.5433 -67.4481 170° South 416 479 38,300 540 Climbing New York Center
10:03AM 33.4406 -67.4247 169° South 412 474 38,800 300 Climbing New York Center
10:04AM 33.3106 -67.3978 170° South 431 496 39,000 60 Climbing New York Center
10:05AM 33.1908 -67.3753 171° South 439 505 39,000  Level New York Center
10:06AM 33.0778 -67.3500 169° South 454 522 39,000  Level New York Center
10:07AM 32.9394 -67.3258 172° South 458 527 39,000  Level New York Center
10:08AM 32.8114 -67.2992 170° South 469 540 39,000  Level New York Center
10:09AM 32.7003 -67.2739 169° South 463 533 39,000  Level New York Center
10:10AM 32.5703 -67.2472 170° South 455 524 39,000  Level New York Center
10:11AM 32.4528 -67.2225 170° South 455 524 39,000  Level New York Center
10:12AM 32.3167 -67.1939 170° South 460 529 39,000  Level New York Center
10:13AM 32.1844 -67.1675 170° South 460 529 39,000  Level New York Center
10:14AM 32.0775 -67.1475 171° South 455 524 39,000  Level New York Center
10:15AM 31.9414 -67.1189 170° South 451 519 39,000  Level New York Center
10:16AM 31.8175 -67.0925 170° South 458 527 39,000  Level New York Center
10:17AM 31.7044 -67.0703 171° South 466 536 39,000  Level New York Center
10:18AM 31.5681 -67.0419 170° South 456 525 39,000  Level New York Center
10:19AM 31.4592 -67.0200 170° South 455 524 39,000  Level New York Center
10:20AM 31.3167 -66.9897 170° South 468 539 39,000  Level New York Center
10:21AM 31.1953 -66.9683 171° South 468 539 39,000  Level New York Center
10:22AM 31.0736 -66.9419 169° South 478 550 39,000  Level New York Center
10:23AM 30.9417 -66.9161 170° South 458 527 39,000  Level New York Center
10:24AM 30.8222 -66.8900 169° South 465 535 39,000  Level New York Center
10:25AM 30.6858 -66.8622 170° South 461 531 39,000  Level New York Center
10:26AM 30.5625 -66.8411 172° South 472 543 39,000 120 Level New York Center
10:27AM 30.4514 -66.8172 169° South 455 524 39,300 900 Climbing New York Center
10:28AM 30.3172 -66.7894 170° South 448 516 40,800 840 Climbing New York Center
10:29AM 30.2022 -66.7658 170° South 441 507 41,000 60 Climbing New York Center
10:30AM 30.0933 -66.7467 171° South 436 502 41,000  Level New York Center
10:31AM 29.9658 -66.7261 172° South 426 490 41,000  Level New York Center
11:27AM 23.5000 -65.5333 165° South 473 544 41,000  Level New York Oceanic (ODAPS)
11:45AM 20.9167 -65.2000 166° South 440 506 41,000  Level San Juan Center
11:46AM 20.7833 -65.2167 187° South 460 529 41,000  Level San Juan Center
11:47AM 20.6500 -65.2167 180° South 450 518 41,000  Level San Juan Center
11:48AM 20.5333 -65.2333 188° South 450 518 41,000 -60 Level San Juan Center
11:49AM 20.4000 -65.2333 180° South 450 518 40,900 -660 Descending San Juan Center
11:50AM 20.2833 -65.2500 188° South 450 518 39,700 -1,080 Descending San Juan Center
11:51AM 20.1500 -65.2500 180° South 460 529 38,800 -900 Descending San Juan Center
11:52AM 20.0333 -65.2667 188° South 450 518 38,000 -1,440 Descending San Juan Center
11:53AM 19.9000 -65.2667 180° South 450 518 35,900 -2,340 Descending San Juan Center
11:54AM 19.7667 -65.2833 187° South 470 541 33,300 -2,880 Descending San Juan Center
11:55AM 19.6500 -65.2833 180° South 470 541 30,100 -2,700 Descending San Juan Center
11:56AM 19.5167 -65.3000 187° South 480 552 27,900 -2,700 Descending San Juan Center
11:57AM 19.3833 -65.3000 180° South 460 529 24,800 -3,120 Descending San Juan Center
11:58AM 19.2500 -65.3167 187° South 450 518 21,700 -2,880 Descending San Juan Center
11:59AM 19.1333 -65.3333 188° South 440 506 19,000 -2,460 Descending San Juan Center
12:00PM 19.0000 -65.3333 180° South 410 472 16,800 -2,040 Descending San Juan Center
12:01PM 18.9000 -65.3333 180° South 390 449 14,900 -2,280 Descending San Juan Center
12:02PM 18.7833 -65.3167 172° South 380 437 12,300 -2,460 Descending San Juan Center
12:03PM 18.6833 -65.2833 162° South 370 426 10,000 -2,340 Descending San Juan Center
12:04PM 18.5833 -65.2500 162° South 360 414 7,700 -1,500 Descending San Juan Center
12:05PM 18.5000 -65.2333 169° South 340 391 7,000 -480 Descending San Juan Center
12:06PM 18.4167 -65.2000 159° South 290 334 6,800 -1,140 Descending San Juan Center
12:07PM 18.3500 -65.1833 167° South 250 288 4,800 -1,740 Descending San Juan Center
12:08PM 18.3167 -65.1333 125° Southeast 220 253 3,400 -1,380 Descending San Juan Center
12:09PM 18.3167 -65.0667 90° East 190 219 2,100 -1,200 Descending San Juan Center
12:10PM 18.3333 -65.0167 71° East 160 184 1,000 -1,140 Descending San Juan Center